Time;durP1;ratioP1;P1;durP2;ratioP2;P2;SDS_P1;SDS_P2;PMS_P1;PMS_P2;Temp;Humidity;BMP_temperature;BMP_pressure;BME280_temperature;BME280_humidity;BME280_pressure;Samples;Min_cycle;Max_cycle;Signal;HPM_P1;HPM_P2
2022/11/19 00:00:46;;;;;;;;;8.00;8.00;;;;;5.70;100.00;99903.03;6317840;22;44595;-91
2022/11/19 00:03:31;;;;;;;;;;;;;;;;;;;;;
2022/11/19 00:06:03;;;;;;;;;8.50;8.25;;;;;5.30;100.00;99837.94;6315905;22;69222;-92
2022/11/19 00:08:28;;;;;;;;;6.75;6.75;;;;;6.02;100.00;99965.66;6308235;22;46209;-92
2022/11/19 00:10:54;;;;;;;;;8.00;4.75;;;;;6.57;100.00;100049.91;6308607;22;45226;-92
2022/11/19 00:13:23;;;;;;;;;8.00;6.25;;;;;5.97;100.00;99961.38;6310506;22;45108;-91
2022/11/19 00:15:49;;;;;;;;;7.00;6.25;;;;;6.91;100.00;100121.31;6315817;22;45506;-90
2022/11/19 00:18:15;;;;;;;;;6.75;6.75;;;;;7.16;100.00;100157.78;6315371;22;46973;-91
2022/11/19 00:20:40;;;;;;;;;8.00;8.00;;;;;6.00;100.00;99987.56;6314467;22;46079;-92
2022/11/19 00:23:06;;;;;;;;;6.00;6.00;;;;;6.16;100.00;100010.13;6319239;22;45031;-92
2022/11/19 00:25:32;;;;;;;;;8.75;8.75;;;;;5.98;100.00;99973.59;6309086;22;45293;-91
2022/11/19 00:27:59;;;;;;;;;4.00;1.25;;;;;7.10;100.00;100152.63;6312896;22;46964;-90
2022/11/19 00:30:25;;;;;;;;;3.75;3.75;;;;;5.44;100.00;99891.06;6314936;22;44744;-90
2022/11/19 00:32:51;;;;;;;;;4.00;4.00;;;;;6.00;100.00;99984.94;6317355;22;45198;-93
2022/11/19 00:35:17;;;;;;;;;6.00;6.00;;;;;6.30;100.00;100032.72;6288994;22;45319;-91
2022/11/19 00:37:42;;;;;;;;;6.25;6.25;;;;;6.70;100.00;100116.31;6289055;22;47010;-93
2022/11/19 00:40:11;;;;;;;;;7.50;7.50;;;;;6.17;100.00;100011.88;6288114;22;44841;-92
2022/11/19 00:43:45;;;;;;;;;6.25;6.25;;;;;6.05;100.00;100006.75;6289906;22;45244;-92
2022/11/19 00:45:25;;;;;;;;;12.00;9.50;;;;;6.14;100.00;100022.41;6308924;22;45178;-91
2022/11/19 00:47:50;;;;;;;;;6.00;6.00;;;;;5.84;100.00;99971.94;6288205;22;46258;-91
2022/11/19 00:50:16;;;;;;;;;5.75;5.75;;;;;6.43;100.00;100065.84;6288926;22;45215;-93
2022/11/19 00:52:42;;;;;;;;;8.50;6.00;;;;;6.55;100.00;100096.34;6289487;22;45297;-92
2022/11/19 00:55:08;;;;;;;;;7.00;4.00;;;;;6.97;100.00;100172.03;6283997;22;45494;-93
2022/11/19 00:57:33;;;;;;;;;4.00;4.00;;;;;6.94;100.00;100171.19;6286068;22;48202;-92
2022/11/19 00:59:59;;;;;;;;;8.00;6.50;;;;;6.34;100.00;100066.78;6287368;22;45427;-91
2022/11/19 01:02:24;;;;;;;;;8.25;7.00;;;;;6.30;100.00;100058.97;6287412;22;45399;-91
2022/11/19 01:04:50;;;;;;;;;7.25;7.00;;;;;6.91;100.00;100181.75;6297795;22;44848;-91
2022/11/19 01:07:16;;;;;;;;;6.75;5.00;;;;;5.23;100.00;99888.66;6292542;22;47094;-92
2022/11/19 01:09:41;;;;;;;;;7.00;7.00;;;;;6.34;100.00;100076.44;6288482;22;44645;-91
2022/11/19 01:12:07;;;;;;;;;8.75;7.25;;;;;5.95;100.00;100003.34;6282161;22;45172;-92
2022/11/19 01:14:32;;;;;;;;;8.75;8.00;;;;;5.48;100.00;99929.47;6286326;22;45138;-92
2022/11/19 01:16:58;;;;;;;;;9.00;7.25;;;;;6.02;100.00;100043.50;6292631;22;47414;-92
2022/11/19 01:19:23;;;;;;;;;9.00;6.25;;;;;6.01;100.00;100041.75;6291436;22;45150;-92
2022/11/19 01:21:49;;;;;;;;;8.75;6.50;;;;;6.84;100.00;100185.31;6291573;22;45151;-92
2022/11/19 01:24:14;;;;;;;;;6.25;6.25;;;;;5.42;100.00;99954.84;6262045;22;45194;-92
2022/11/19 01:26:40;;;;;;;;;8.25;8.25;;;;;5.74;100.00;100011.38;6282970;22;46614;-92
2022/11/19 01:29:05;;;;;;;;;6.50;5.00;;;;;6.26;100.00;100094.88;6291318;22;44566;-92
2022/11/19 01:31:31;;;;;;;;;7.00;7.00;;;;;5.63;100.00;99987.88;6289626;22;45229;-92
2022/11/19 01:33:57;;;;;;;;;7.25;6.75;;;;;5.95;100.00;100065.41;6312587;22;45151;-92
2022/11/19 01:36:25;;;;;;;;;5.50;5.00;;;;;4.71;100.00;99851.53;6321028;22;47009;-91
2022/11/19 01:38:51;;;;;;;;;6.50;4.00;;;;;5.55;100.00;99979.22;6329725;22;44730;-92
2022/11/19 01:41:25;;;;;;;;;6.00;6.00;;;;;6.36;100.00;100148.16;6319751;22;44725;-93
2022/11/19 01:43:59;;;;;;;;;8.00;6.75;;;;;4.90;100.00;99885.41;6314698;22;45248;-92
2022/11/19 01:46:30;;;;;;;;;8.25;8.00;;;;;5.82;100.00;100052.41;6309820;22;46898;-92
2022/11/19 01:49:10;;;;;;;;;8.00;7.00;;;;;5.99;100.00;100080.28;6311608;22;45783;-92
2022/11/19 01:51:55;;;;;;;;;10.50;8.25;;;;;6.02;100.00;100114.34;6308801;22;45280;-91
2022/11/19 01:54:25;;;;;;;;;7.50;6.00;;;;;5.48;100.00;100005.50;6321315;22;44803;-91
2022/11/19 01:56:53;;;;;;;;;5.50;5.50;;;;;4.91;100.00;99926.47;6316104;22;47480;-91
2022/11/19 01:59:19;;;;;;;;;6.75;5.50;;;;;6.59;100.00;100208.34;6313384;22;45385;-92
2022/11/19 02:01:45;;;;;;;;;5.00;5.00;;;;;6.48;100.00;100176.91;6315138;22;45345;-90
2022/11/19 02:04:14;;;;;;;;;6.50;4.50;;;;;5.67;100.00;100060.41;6316767;22;45355;-91
2022/11/19 02:06:40;;;;;;;;;3.75;3.00;;;;;6.12;100.00;100139.63;6313196;22;47100;-90
2022/11/19 02:09:09;;;;;;;;;6.00;6.00;;;;;5.72;100.00;100061.22;6317044;22;45213;-92
2022/11/19 02:11:56;;;;;;;;;6.00;6.00;;;;;5.55;100.00;100039.53;6325960;22;45181;-93
2022/11/19 02:14:30;;;;;;;;;4.00;4.00;;;;;6.50;100.00;100197.91;6327281;22;44824;-91
2022/11/19 02:17:08;;;;;;;;;4.50;4.00;;;;;6.16;100.00;100141.31;6318351;22;48193;-91
2022/11/19 02:19:41;;;;;;;;;7.25;6.00;;;;;4.06;100.00;99786.53;6317401;22;44612;-91
2022/11/19 02:22:28;;;;;;;;;5.00;5.00;;;;;6.46;100.00;100190.97;6315353;22;45359;-90
2022/11/19 02:25:06;;;;;;;;;6.25;5.75;;;;;5.25;100.00;100008.28;6314079;22;45199;-91
2022/11/19 02:27:44;;;;;;;;;6.50;6.50;;;;;6.45;100.00;100200.56;6312362;22;46033;-91
2022/11/19 02:30:23;;;;;;;;;7.25;3.75;;;;;4.82;100.00;99918.66;6314322;22;45343;-91
2022/11/19 02:33:18;;;;;;;;;6.00;4.00;;;;;6.41;100.00;100196.25;6307561;22;45174;-92
2022/11/19 02:35:44;;;;;;;;;7.75;7.25;;;;;6.39;100.00;100201.53;6281338;22;45205;-92
2022/11/19 02:38:20;;;;;;;;;8.75;7.00;;;;;4.60;100.00;99903.97;6287458;22;48065;-92
2022/11/19 02:40:58;;;;;;;;;5.25;5.25;;;;;4.63;100.00;99900.44;6294765;22;45265;-91
2022/11/19 02:43:38;;;;;;;;;5.50;5.50;;;;;6.37;100.00;100191.91;6289842;22;45349;-91
2022/11/19 02:46:14;;;;;;;;;7.75;6.25;;;;;6.07;100.00;100149.28;6317698;22;45138;-91
2022/11/19 02:48:45;;;;;;;;;4.00;4.00;;;;;6.36;100.00;100184.91;6282882;22;46942;-92
2022/11/19 02:51:13;;;;;;;;;6.00;4.00;;;;;5.29;100.00;100017.00;6284485;22;45948;-91
2022/11/19 02:53:38;;;;;;;;;7.25;4.50;;;;;6.27;100.00;100172.75;6260296;22;45392;-90
2022/11/19 02:56:16;;;;;;;;;7.00;5.00;;;;;5.58;100.00;100058.72;6259403;22;45231;-90
2022/11/19 03:04:30;;;;;;;;;4.00;4.00;;;;;5.95;100.00;100136.22;6315698;22;45289;-92
2022/11/19 03:07:02;;;;;;;;;3.25;3.25;;;;;5.41;100.00;100030.00;6292801;22;44822;-91
2022/11/19 03:09:32;;;;;;;;;6.50;4.00;;;;;6.42;100.00;100200.59;6288450;22;47344;-91
2022/11/19 03:12:08;;;;;;;;;3.25;3.25;;;;;5.66;100.00;100077.00;6292553;22;45307;-92
2022/11/19 03:18:13;;;;;;;;;3.00;3.00;;;;;6.38;100.00;100172.66;6320303;22;45267;-89
2022/11/19 03:21:05;;;;;;;;;6.25;6.25;;;;;4.76;100.00;99904.72;6278236;22;46788;-91
2022/11/19 03:23:56;;;;;;;;;5.50;5.00;;;;;5.71;100.00;100062.13;6284589;22;45267;-90
2022/11/19 03:26:32;;;;;;;;;4.00;4.00;;;;;5.93;100.00;100093.41;6288711;22;45151;-91
2022/11/19 03:29:01;;;;;;;;;3.00;3.00;;;;;5.52;100.00;100038.66;6292010;22;44983;-91
2022/11/19 03:31:31;;;;;;;;;3.75;3.75;;;;;5.92;100.00;100096.91;6293714;22;46968;-91
2022/11/19 03:34:08;;;;;;;;;6.00;4.00;;;;;6.69;100.00;100222.25;6314432;22;44826;-92
2022/11/19 03:36:40;;;;;;;;;6.25;4.00;;;;;6.06;100.00;100097.72;6309254;22;45390;-91
2022/11/19 03:39:14;;;;;;;;;3.75;2.25;;;;;6.74;100.00;100212.56;6307987;22;45526;-91
2022/11/19 03:41:44;;;;;;;;;4.00;4.00;;;;;5.76;100.00;100036.72;6312936;22;48546;-91
2022/11/19 03:44:16;;;;;;;;;3.00;2.25;;;;;6.16;100.00;100112.47;6312904;22;45787;-92
2022/11/19 03:46:44;;;;;;;;;4.00;3.00;;;;;6.07;100.00;100102.06;6314757;22;45277;-91
2022/11/19 03:49:12;;;;;;;;;3.25;3.25;;;;;6.81;100.00;100209.00;6309601;22;45398;-91
2022/11/19 03:51:54;;;;;;;;;3.75;3.00;;;;;6.32;100.00;100125.47;6313914;22;47325;-90
2022/11/19 03:54:20;;;;;;;;;3.00;3.00;;;;;6.50;100.00;100143.66;6314200;22;45338;-90
2022/11/19 03:56:47;;;;;;;;;4.00;4.00;;;;;6.29;100.00;100100.09;6314286;22;45300;-90
2022/11/19 03:59:13;;;;;;;;;2.00;2.00;;;;;6.96;100.00;100222.88;6320908;22;44849;-90
2022/11/19 04:05:43;;;;;;;;;3.00;3.00;;;;;7.01;100.00;100214.03;6321973;22;45190;-92
2022/11/19 04:08:11;;;;;;;;;5.50;5.50;;;;;6.12;100.00;100060.91;6327635;22;45123;-91
2022/11/19 04:10:39;;;;;;;;;3.00;3.00;;;;;6.81;100.00;100172.22;6308249;22;45182;-93
2022/11/19 04:13:04;;;;;;;;;6.50;4.00;;;;;6.71;100.00;100162.69;6316015;22;46840;-92
2022/11/19 04:15:31;;;;;;;;;4.00;4.00;;;;;7.07;100.00;100242.00;6315926;22;45387;-91
2022/11/19 04:17:57;;;;;;;;;2.50;2.50;;;;;6.67;100.00;100168.88;6318262;22;44747;-91
2022/11/19 04:20:22;;;;;;;;;4.75;4.75;;;;;7.09;100.00;100237.59;6307878;22;45528;-91
2022/11/19 04:22:51;;;;;;;;;6.00;3.50;;;;;6.13;100.00;100072.28;6311490;22;48482;-92
2022/11/19 04:25:17;;;;;;;;;4.00;2.00;;;;;7.13;100.00;100243.72;6316487;22;45401;-92
2022/11/19 04:27:46;;;;;;;;;5.00;3.25;;;;;6.10;100.00;100052.16;6317637;22;45352;-91
2022/11/19 04:30:12;;;;;;;;;4.50;3.50;;;;;5.47;100.00;99953.09;6322227;22;45267;-92
2022/11/19 04:32:38;;;;;;;;;6.00;3.75;;;;;6.71;100.00;100187.22;6286972;22;46131;-91
2022/11/19 04:35:04;;;;;;;;;3.00;3.00;;;;;7.00;100.00;100220.19;6311745;22;45339;-92
2022/11/19 04:37:32;;;;;;;;;4.00;4.00;;;;;5.90;100.00;100046.22;6311305;22;45162;-91
2022/11/19 04:39:58;;;;;;;;;3.00;3.00;;;;;5.32;100.00;99939.22;6308674;22;45451;-91
2022/11/19 04:42:23;;;;;;;;;1.75;1.75;;;;;5.98;100.00;100068.91;6287191;22;46302;-92
2022/11/19 04:44:49;;;;;;;;;3.25;3.25;;;;;6.69;100.00;100188.97;6314843;22;45280;-91
2022/11/19 04:47:14;;;;;;;;;7.50;4.25;;;;;6.37;100.00;100150.75;6314961;22;45352;-91
2022/11/19 04:49:40;;;;;;;;;2.25;2.25;;;;;5.48;100.00;99984.53;6314517;22;44902;-91
2022/11/19 04:52:05;;;;;;;;;3.25;3.25;;;;;6.36;100.00;100132.41;6317787;22;46113;-90
2022/11/19 04:54:31;;;;;;;;;6.50;3.75;;;;;5.92;100.00;100058.44;6320584;22;45265;-91
2022/11/19 04:56:56;;;;;;;;;3.75;3.00;;;;;5.49;100.00;99986.25;6320411;22;45260;-91
2022/11/19 04:59:21;;;;;;;;;5.25;4.50;;;;;6.75;100.00;100214.31;6313614;22;45747;-93
2022/11/19 05:01:48;;;;;;;;;5.00;3.50;;;;;6.19;100.00;100098.44;6310610;22;48373;-92
2022/11/19 05:04:13;;;;;;;;;2.75;2.75;;;;;6.01;100.00;100073.25;6314917;22;45996;-92
2022/11/19 05:06:39;;;;;;;;;3.50;3.50;;;;;5.63;100.00;100006.25;6314716;22;45212;-93
2022/11/19 05:09:04;;;;;;;;;5.75;5.75;;;;;7.21;100.00;100270.75;6311190;22;44891;-92
2022/11/19 05:11:30;;;;;;;;;4.00;4.00;;;;;6.10;100.00;100077.53;6311686;22;46526;-92
2022/11/19 05:13:55;;;;;;;;;3.50;3.00;;;;;6.83;100.00;100190.59;6318209;22;45621;-91
2022/11/19 05:16:22;;;;;;;;;8.25;3.25;;;;;6.14;100.00;100090.63;6323325;22;45203;-92
2022/11/19 05:18:48;;;;;;;;;3.75;3.75;;;;;6.22;100.00;100099.31;6315408;22;45490;-92
2022/11/19 05:21:14;;;;;;;;;4.25;4.25;;;;;6.32;100.00;100120.22;6310412;22;48205;-92
2022/11/19 05:23:39;;;;;;;;;7.00;7.00;;;;;5.66;100.00;100006.22;6315457;22;46226;-91
2022/11/19 05:26:05;;;;;;;;;5.25;3.75;;;;;6.29;100.00;100097.47;6317280;22;45611;-92
2022/11/19 05:28:31;;;;;;;;;3.50;3.50;;;;;6.89;100.00;100201.91;6316903;22;45209;-91
2022/11/19 05:30:57;;;;;;;;;0.00;0.00;;;;;6.16;100.00;100070.47;6314529;22;46386;-92
2022/11/19 05:33:24;;;;;;;;;7.75;6.00;;;;;6.81;100.00;100185.34;6323278;22;45212;-91
2022/11/19 05:35:50;;;;;;;;;7.25;3.00;;;;;6.86;100.00;100215.09;6330016;22;44637;-91
2022/11/19 05:38:16;;;;;;;;;4.25;3.25;;;;;5.34;100.00;99960.16;6318314;22;45215;-92
2022/11/19 05:40:44;;;;;;;;;3.00;3.00;;;;;6.54;100.00;100161.13;6315798;22;47359;-91
2022/11/19 05:43:10;;;;;;;;;6.50;6.00;;;;;6.45;100.00;100157.72;6314361;22;45263;-92
2022/11/19 05:45:36;;;;;;;;;3.00;3.00;;;;;7.03;100.00;100240.28;6325074;22;45367;-91
2022/11/19 05:48:01;;;;;;;;;5.75;5.50;;;;;7.18;100.00;100273.44;6327592;22;45192;-92
2022/11/19 05:50:27;;;;;;;;;3.75;3.75;;;;;5.50;100.00;99987.13;6317632;22;47976;-92
2022/11/19 05:52:52;;;;;;;;;3.00;3.00;;;;;6.52;100.00;100173.38;6319293;22;45343;-92
2022/11/19 05:55:18;;;;;;;;;4.75;3.75;;;;;6.78;100.00;100222.16;6316327;22;45360;-92
2022/11/19 05:57:43;;;;;;;;;5.75;4.00;;;;;6.32;100.00;100142.06;6316009;22;45213;-92
2022/11/19 06:00:10;;;;;;;;;5.00;3.75;;;;;6.31;100.00;100142.94;6319879;22;46825;-92
2022/11/19 06:02:35;;;;;;;;;4.00;4.00;;;;;6.32;100.00;100154.34;6317381;22;44579;-91
2022/11/19 06:05:01;;;;;;;;;3.75;3.25;;;;;6.99;100.00;100270.13;6318053;22;45142;-90
2022/11/19 06:07:26;;;;;;;;;5.00;3.50;;;;;5.68;100.00;100056.91;6323801;22;45202;-92
2022/11/19 06:09:52;;;;;;;;;3.50;3.50;;;;;6.93;100.00;100277.19;6320003;22;47360;-92
2022/11/19 06:12:17;;;;;;;;;4.00;3.00;;;;;4.94;100.00;99939.53;6320493;22;45510;-92
2022/11/19 06:14:43;;;;;;;;;3.50;3.50;;;;;6.50;100.00;100204.03;6320515;22;45278;-91
2022/11/19 06:17:08;;;;;;;;;7.75;4.25;;;;;6.66;100.00;100236.28;6298955;22;45312;-91
2022/11/19 06:19:34;;;;;;;;;6.25;6.25;;;;;5.39;100.00;100047.50;6323477;22;46367;-91
2022/11/19 06:25:21;;;;;;;;;3.25;3.25;;;;;5.68;100.00;100091.00;6314872;22;44737;-91
2022/11/19 06:27:48;;;;;;;;;7.50;7.50;;;;;6.72;100.00;100273.00;6316264;22;45204;-92
2022/11/19 06:30:15;;;;;;;;;9.00;6.00;;;;;6.71;100.00;100294.03;6316043;22;45279;-90
2022/11/19 06:32:41;;;;;;;;;4.75;4.25;;;;;6.11;100.00;100179.00;6315364;22;45286;-92
2022/11/19 06:35:07;;;;;;;;;7.25;5.50;;;;;5.52;100.00;100085.84;6324668;22;45277;-92
2022/11/19 06:37:32;;;;;;;;;4.00;4.00;;;;;5.79;100.00;100165.22;6331608;22;44903;-91
2022/11/19 06:39:58;;;;;;;;;3.00;3.00;;;;;4.94;100.00;100007.63;6323176;22;46114;-91
2022/11/19 06:42:35;;;;;;;;;5.50;4.00;;;;;5.45;100.00;100099.00;6316019;22;45213;-91
2022/11/19 06:45:45;;;;;;;;;5.50;4.50;;;;;4.92;100.00;100020.72;6315238;22;45146;-92
2022/11/19 06:48:10;;;;;;;;;6.25;6.00;;;;;6.57;100.00;100316.03;6317782;22;45615;-89
2022/11/19 06:50:37;;;;;;;;;6.00;3.75;;;;;6.36;100.00;100269.81;6312529;22;46400;-92
2022/11/19 06:53:03;;;;;;;;;4.00;3.00;;;;;6.00;100.00;100208.81;6311662;22;45209;-90
2022/11/19 06:55:37;;;;;;;;;5.25;4.00;;;;;6.12;100.00;100243.72;6317431;22;45235;-93
2022/11/19 06:58:04;;;;;;;;;4.00;4.00;;;;;5.38;100.00;100095.56;6318985;22;45402;-92
2022/11/19 07:00:34;;;;;;;;;6.00;4.00;;;;;5.45;100.00;100105.13;6314977;22;47197;-91
2022/11/19 07:03:00;;;;;;;;;9.00;4.50;;;;;5.16;100.00;100055.50;6291743;22;45325;-90
2022/11/19 07:05:26;;;;;;;;;6.50;6.00;;;;;6.78;100.00;100323.75;6316429;22;45265;-92
2022/11/19 07:07:51;;;;;;;;;4.25;3.75;;;;;5.43;100.00;100104.25;6314645;22;45254;-91
2022/11/19 07:10:17;;;;;;;;;3.50;3.50;;;;;6.71;100.00;100297.53;6317317;22;46092;-92
2022/11/19 07:12:43;;;;;;;;;3.50;3.50;;;;;5.85;100.00;100167.78;6321693;22;45278;-92
2022/11/19 07:15:09;;;;;;;;;6.00;4.00;;;;;5.05;100.00;100042.47;6317547;22;45213;-91
2022/11/19 07:17:35;;;;;;;;;3.00;3.00;;;;;6.17;100.00;100216.56;6320589;22;45458;-92
2022/11/19 07:20:04;;;;;;;;;8.75;7.75;;;;;5.83;100.00;100152.94;6318887;22;45291;-92
2022/11/19 07:22:30;;;;;;;;;6.50;5.00;;;;;6.00;100.00;100181.72;6315884;22;45237;-93
2022/11/19 07:24:55;;;;;;;;;3.50;1.75;;;;;5.73;100.00;100133.78;6312284;22;45221;-91
2022/11/19 07:27:20;;;;;;;;;3.50;3.50;;;;;5.87;100.00;100160.75;6318915;22;44789;-91
2022/11/19 07:30:04;;;;;;;;;6.25;6.25;;;;;7.01;100.00;100342.78;6319927;22;47623;-90
2022/11/19 07:32:30;;;;;;;;;6.00;6.00;;;;;5.89;100.00;100163.41;6286146;22;45482;-92
2022/11/19 07:34:56;;;;;;;;;9.50;7.50;;;;;5.88;100.00;100157.28;6309390;22;45256;-91
2022/11/19 07:37:22;;;;;;;;;7.50;6.25;;;;;6.31;100.00;100233.97;6307829;22;45367;-92
2022/11/19 07:39:48;;;;;;;;;7.00;6.25;;;;;6.34;100.00;100253.19;6310966;22;47394;-92
2022/11/19 07:44:57;;;;;;;;;6.25;6.25;;;;;7.07;100.00;100374.28;6316835;22;45197;-92
2022/11/19 07:47:28;;;;;;;;;6.75;5.00;;;;;6.58;100.00;100295.88;6318737;22;45268;-91
2022/11/19 07:49:53;;;;;;;;;10.50;7.25;;;;;6.42;100.00;100268.00;6320217;22;46323;-93
2022/11/19 07:52:20;;;;;;;;;8.00;8.00;;;;;6.64;100.00;100282.72;6316635;22;45376;-92
2022/11/19 07:54:45;;;;;;;;;7.25;6.00;;;;;5.67;100.00;100112.84;6291967;22;45335;-93
2022/11/19 07:57:11;;;;;;;;;9.25;7.25;;;;;5.30;100.00;100048.44;6312356;22;45375;-93
2022/11/19 07:59:36;;;;;;;;;9.25;9.25;;;;;5.32;100.00;100053.66;6313136;22;45374;-92
2022/11/19 08:05:39;;;;;;;;;11.00;9.25;;;;;5.88;100.00;100125.78;6319519;22;45297;-92
2022/11/19 08:08:04;;;;;;;;;7.00;7.00;;;;;7.37;100.00;100392.44;6319972;22;45198;-93
2022/11/19 08:10:30;;;;;;;;;11.75;8.50;;;;;6.38;100.00;100219.91;6319481;22;47927;-92
2022/11/19 08:13:04;;;;;;;;;7.00;7.00;;;;;5.95;100.00;100142.38;6318028;22;45188;-90
2022/11/19 08:15:31;;;;;;;;;9.00;8.50;;;;;7.59;100.00;100420.28;6312548;22;45261;-90
2022/11/19 08:18:11;;;;;;;;;6.75;6.50;;;;;6.35;100.00;100199.81;6318410;22;45547;-91
2022/11/19 08:20:39;;;;;;;;;10.25;8.00;;;;;5.86;100.00;100097.81;6315368;22;45142;-93
2022/11/19 08:23:06;;;;;;;;;8.00;5.25;;;;;7.25;100.00;100315.41;6318918;22;45213;-93
2022/11/19 08:25:32;;;;;;;;;9.00;9.00;;;;;6.96;100.00;100272.78;6320740;22;44619;-94
2022/11/19 08:27:58;;;;;;;;;6.00;6.00;;;;;7.19;100.00;100293.59;6315015;22;45539;-93
2022/11/19 08:30:23;;;;;;;;;10.75;8.50;;;;;6.90;100.00;100236.94;6286980;22;47139;-92
2022/11/19 08:32:49;;;;;;;;;10.00;8.00;;;;;8.06;100.00;100444.31;6311262;22;45454;-91
2022/11/19 08:35:14;;;;;;;;;9.50;7.50;;;;;7.72;100.00;100367.50;6312899;22;45395;-93
2022/11/19 08:37:39;;;;;;;;;7.25;6.50;;;;;7.34;100.00;100287.28;6314406;22;44790;-92
2022/11/19 08:40:06;;;;;;;;;7.00;4.00;;;;;7.77;100.00;100344.63;6314437;22;46960;-91
2022/11/19 08:48:20;;;;;;;;;5.75;4.25;;;;;7.51;99.97;100274.81;6319785;22;45376;-93
2022/11/19 08:50:45;;;;;;;;;10.00;7.25;;;;;7.34;99.90;100229.44;6321977;22;46210;-91
2022/11/19 08:53:17;;;;;;;;;7.25;6.25;;;;;7.79;100.00;100306.91;6319444;22;45319;-93
2022/11/19 08:55:43;;;;;;;;;4.50;4.50;;;;;8.11;99.64;100346.88;6318707;22;45197;-93
2022/11/19 08:58:11;;;;;;;;;7.50;5.75;;;;;8.73;99.50;100439.09;6323582;22;44770;-94
2022/11/19 09:00:37;;;;;;;;;7.00;7.00;;;;;7.67;99.48;100266.72;6304158;22;46372;-93
2022/11/19 09:03:03;;;;;;;;;6.75;6.25;;;;;7.73;99.58;100277.16;6331014;22;44720;-92
2022/11/19 09:05:29;;;;;;;;;5.25;5.25;;;;;8.44;100.00;100377.16;6327572;22;44685;-91
2022/11/19 09:07:55;;;;;;;;;5.25;5.00;;;;;7.38;99.69;100200.47;6322873;22;45221;-93
2022/11/19 09:10:21;;;;;;;;;7.75;6.75;;;;;8.96;99.87;100473.00;6324859;22;45448;-92
2022/11/19 09:12:48;;;;;;;;;6.75;5.50;;;;;9.01;99.91;100449.22;6286112;22;45248;-93
2022/11/19 09:15:28;;;;;;;;;7.25;7.00;;;;;9.04;100.00;100457.94;6287459;22;45266;-94
2022/11/19 09:18:09;;;;;;;;;6.75;5.25;;;;;6.98;99.29;100121.22;6289591;22;45170;-93
2022/11/19 09:20:41;;;;;;;;;8.00;7.00;;;;;8.04;99.69;100292.56;6323288;22;45171;-93
2022/11/19 09:23:19;;;;;;;;;5.00;5.00;;;;;8.24;99.74;100308.91;6319482;22;44611;-92
2022/11/19 09:26:00;;;;;;;;;5.00;5.00;;;;;9.15;99.70;100473.59;6296337;22;45309;-93
2022/11/19 09:38:48;;;;;;;;;6.50;6.50;;;;;7.36;99.56;100111.97;6189226;23;45271;-94
2022/11/19 09:42:04;;;;;;;;;6.25;6.25;;;;;9.03;99.27;100390.31;6185017;23;45398;-93
2022/11/19 09:45:27;;;;;;;;;;;;;;;;;;;;;
2022/11/19 09:48:23;;;;;;;;;6.25;6.25;;;;;9.34;99.42;100425.84;6199387;23;73275;-93
2022/11/19 09:54:21;;;;;;;;;8.25;6.50;;;;;8.64;99.16;100297.81;6105541;23;45227;-92
2022/11/19 10:00:09;;;;;;;;;6.50;6.50;;;;;9.40;99.58;100407.25;6096711;23;45194;-91
2022/11/19 10:02:37;;;;;;;;;6.25;5.25;;;;;7.88;98.72;100153.28;6092834;23;45392;-90
2022/11/19 10:05:51;;;;;;;;;;;;;;;;;;;;;
2022/11/19 10:08:25;;;;;;;;;9.00;6.00;;;;;9.14;98.89;100333.84;6156502;23;74402;-91
2022/11/19 10:11:25;;;;;;;;;9.00;7.75;;;;;9.99;99.00;100464.22;6163306;23;45381;-91
2022/11/19 10:14:28;;;;;;;;;11.75;9.25;;;;;10.07;98.61;100473.75;6187986;23;45507;-92
2022/11/19 10:17:18;;;;;;;;;4.75;4.75;;;;;9.41;98.33;100362.38;6194411;23;45224;-93
2022/11/19 10:19:53;;;;;;;;;4.00;4.00;;;;;9.49;98.22;100349.06;6199980;23;45390;-91
2022/11/19 10:22:24;;;;;;;;;6.50;4.50;;;;;10.32;98.22;100474.13;6191189;23;44678;-90
2022/11/19 10:25:05;;;;;;;;;4.75;4.75;;;;;10.11;97.69;100429.66;6160336;23;45299;-90
2022/11/19 10:27:35;;;;;;;;;4.75;4.75;;;;;10.27;97.64;100443.44;6190235;23;45483;-92
2022/11/19 10:30:12;;;;;;;;;4.25;4.25;;;;;9.94;97.96;100374.53;6193369;22;48114;-91
2022/11/19 10:33:09;;;;;;;;;3.00;3.00;;;;;10.29;97.29;100396.69;6287886;22;44637;-91
2022/11/19 10:35:53;;;;;;;;;5.25;5.25;;;;;9.82;96.85;100317.59;6288171;22;45444;-93
2022/11/19 10:39:19;;;;;;;;;3.50;3.50;;;;;10.93;97.30;100462.28;6285890;22;45232;-93
2022/11/19 10:51:53;;;;;;;;;8.25;6.00;;;;;10.81;95.37;100344.44;6264441;22;44716;-93
2022/11/19 10:55:19;;;;;;;;;3.25;3.25;;;;;11.71;95.22;100459.47;6256285;22;45294;-92
2022/11/19 11:05:36;;;;;;;;;4.50;4.50;;;;;12.53;93.61;100458.06;6170845;23;45282;-92
2022/11/19 11:08:29;;;;;;;;;;;;;;;;;;;;;
2022/11/19 11:11:12;;;;;;;;;;;;;;;;;;;;;
2022/11/19 11:30:16;;;;;;;;;7.25;6.00;;;;;13.97;90.79;100446.31;6354429;22;45198;-92
2022/11/19 11:32:52;;;;;;;;;5.50;5.50;;;;;13.94;91.30;100449.09;6320002;22;47872;-92
2022/11/19 11:35:32;;;;;;;;;4.00;4.00;;;;;13.02;91.64;100306.25;6324145;22;45161;-93
2022/11/19 11:38:06;;;;;;;;;5.75;5.75;;;;;12.77;91.81;100275.28;6321065;22;45242;-93
2022/11/19 11:40:33;;;;;;;;;7.00;4.00;;;;;13.83;91.95;100454.78;6326453;22;45158;-91
2022/11/19 11:42:59;;;;;;;;;7.50;7.00;;;;;12.86;91.46;100296.19;6331370;22;47274;-91
2022/11/19 11:45:35;;;;;;;;;5.50;5.50;;;;;13.82;92.43;100450.38;6332323;22;45463;-91
2022/11/19 11:48:07;;;;;;;;;3.50;3.50;;;;;13.84;92.16;100455.63;6324924;22;44971;-92
2022/11/19 11:54:18;;;;;;;;;4.25;4.25;;;;;13.91;92.10;100441.22;6349564;22;45257;-92
2022/11/19 12:03:33;;;;;;;;;5.25;3.50;;;;;13.83;91.53;100438.84;6355445;22;45161;-93
2022/11/19 12:06:07;;;;;;;;;5.00;4.00;;;;;13.65;91.17;100397.88;6324764;22;47039;-93
2022/11/19 12:08:52;;;;;;;;;3.25;3.25;;;;;13.65;90.73;100381.94;6354303;22;45319;-93
2022/11/19 12:11:54;;;;;;;;;5.25;4.00;;;;;14.06;91.26;100438.91;6329194;22;45210;-93
2022/11/19 12:14:35;;;;;;;;;6.00;4.50;;;;;14.07;90.72;100438.88;6328341;22;44806;-93
2022/11/19 12:17:33;;;;;;;;;4.00;4.00;;;;;14.02;90.72;100436.38;6329783;22;47009;-94
2022/11/19 12:20:21;;;;;;;;;6.00;5.00;;;;;13.62;90.42;100382.03;6327652;22;44728;-93
2022/11/19 12:23:14;;;;;;;;;4.75;4.75;;;;;13.90;91.24;100439.47;6322324;22;45230;-93
2022/11/19 12:25:48;;;;;;;;;7.25;6.25;;;;;13.83;90.60;100441.50;6320325;22;45374;-92
2022/11/19 12:28:58;;;;;;;;;4.00;4.00;;;;;12.88;91.68;100275.75;6326128;22;46994;-92
2022/11/19 12:31:56;;;;;;;;;5.75;5.75;;;;;13.80;91.23;100435.41;6280289;22;45460;-92
2022/11/19 12:34:30;;;;;;;;;4.25;3.25;;;;;13.75;91.14;100422.28;6301392;22;44801;-93
2022/11/19 12:37:18;;;;;;;;;3.00;3.00;;;;;13.72;91.93;100422.41;6357032;22;45178;-93
2022/11/19 12:40:02;;;;;;;;;2.00;2.00;;;;;12.16;91.10;100164.19;6333916;22;47161;-92
2022/11/19 12:42:51;;;;;;;;;3.00;3.00;;;;;13.64;91.52;100417.38;6330865;22;45315;-92
2022/11/19 12:45:16;;;;;;;;;3.75;3.75;;;;;13.63;91.14;100420.94;6330370;22;45231;-91
2022/11/19 12:47:45;;;;;;;;;2.00;2.00;;;;;13.64;91.36;100412.06;6326497;22;45572;-93
2022/11/19 12:50:13;;;;;;;;;4.25;3.00;;;;;13.75;90.99;100410.81;6325378;22;47576;-91
2022/11/19 12:53:01;;;;;;;;;2.25;2.25;;;;;13.82;90.91;100412.34;6320440;22;45199;-90
2022/11/19 12:56:03;;;;;;;;;2.75;2.75;;;;;13.85;90.97;100410.41;6321293;22;45347;-92
2022/11/19 12:58:44;;;;;;;;;7.00;4.75;;;;;13.84;90.98;100408.69;6322807;22;45442;-93
2022/11/19 13:01:19;;;;;;;;;5.00;3.25;;;;;12.93;90.77;100263.19;6326763;22;47085;-92
2022/11/19 13:03:48;;;;;;;;;3.75;3.75;;;;;13.70;90.94;100413.63;6328613;22;45364;-92
2022/11/19 13:06:21;;;;;;;;;4.00;4.00;;;;;13.59;90.95;100413.13;6327971;22;44605;-91
2022/11/19 13:08:53;;;;;;;;;3.50;2.25;;;;;13.27;91.41;100378.81;6328991;22;45236;-92
2022/11/19 13:11:35;;;;;;;;;4.75;4.00;;;;;12.90;91.35;100342.88;6331554;22;45305;-93
2022/11/19 13:14:06;;;;;;;;;4.25;4.25;;;;;11.63;91.50;100135.84;6327362;22;45150;-93
2022/11/19 13:16:34;;;;;;;;;5.00;3.00;;;;;12.42;91.97;100298.50;6349880;22;45164;-92
2022/11/19 13:19:25;;;;;;;;;2.00;2.00;;;;;11.24;92.68;100133.50;6338046;22;45204;-93
2022/11/19 13:22:00;;;;;;;;;3.25;3.25;;;;;12.92;92.52;100422.41;6345186;22;45655;-92
2022/11/19 13:24:39;;;;;;;;;4.00;3.00;;;;;12.07;93.56;100295.16;6342412;22;45956;-91